createdAt,value
2019-02-20T00:00:29.904Z,6.86
2019-02-20T00:02:58.383Z,6.89
2019-02-20T00:05:26.946Z,6.89
2019-02-20T00:07:55.423Z,6.84
2019-02-20T00:10:23.908Z,6.86
2019-02-20T00:12:52.385Z,6.91
2019-02-20T00:15:20.867Z,6.83
2019-02-20T00:17:49.407Z,6.92
2019-02-20T00:20:17.902Z,6.96
2019-02-20T00:22:46.380Z,6.93
2019-02-20T00:25:14.874Z,6.96
2019-02-20T00:27:43.336Z,6.93
2019-02-20T00:30:11.856Z,6.95
2019-02-20T00:32:40.349Z,6.95
2019-02-20T00:35:08.887Z,6.99
2019-02-20T00:37:37.358Z,7.00
2019-02-20T00:40:11.270Z,7.00
2019-02-20T00:42:39.744Z,7.03
2019-02-20T00:45:29.325Z,7.03
2019-02-20T00:48:05.292Z,7.02
2019-02-20T00:50:35.435Z,7.05
2019-02-20T00:53:05.545Z,7.02
2019-02-20T00:55:34.050Z,7.00
2019-02-20T00:58:02.496Z,6.99
2019-02-20T01:00:30.999Z,7.00
2019-02-20T01:02:59.450Z,7.00
2019-02-20T01:05:27.928Z,7.02
2019-02-20T01:07:56.418Z,7.04
2019-02-20T01:10:24.888Z,6.98
2019-02-20T01:12:53.380Z,7.01
2019-02-20T01:15:21.856Z,7.00
2019-02-20T01:17:50.346Z,7.07
2019-02-20T01:20:18.802Z,7.02
2019-02-20T01:22:47.350Z,7.07
2019-02-20T01:25:15.830Z,7.02
2019-02-20T01:27:44.322Z,6.98
2019-02-20T01:30:13.539Z,7.06
2019-02-20T01:32:42.024Z,7.08
2019-02-20T01:35:10.740Z,7.03
2019-02-20T01:37:39.248Z,6.99
2019-02-20T01:40:22.828Z,7.06
2019-02-20T01:42:49.158Z,6.99
2019-02-20T01:45:17.656Z,7.08
2019-02-20T01:47:46.767Z,7.03
2019-02-20T01:50:30.628Z,6.98
2019-02-20T01:53:14.267Z,7.00
2019-02-20T01:55:50.965Z,7.05
2019-02-20T01:58:30.152Z,7.00
2019-02-20T02:01:03.948Z,6.99
2019-02-20T02:03:49.790Z,6.93
2019-02-20T02:06:29.184Z,6.95
2019-02-20T02:09:12.641Z,6.98
2019-02-20T02:11:52.609Z,6.96
2019-02-20T02:14:53.687Z,7.03
2019-02-20T02:17:31.819Z,7.00
2019-02-20T02:20:16.165Z,7.00
2019-02-20T02:22:58.253Z,7.01
2019-02-20T02:25:51.981Z,7.01
2019-02-20T02:28:30.625Z,7.02
2019-02-20T02:31:21.124Z,7.02
2019-02-20T02:34:07.060Z,7.02
2019-02-20T02:36:47.735Z,7.04
2019-02-20T02:39:44.476Z,7.03
2019-02-20T02:42:32.283Z,7.01
2019-02-20T02:45:12.032Z,7.02
2019-02-20T02:47:53.108Z,7.01
2019-02-20T02:50:35.371Z,7.01
2019-02-20T02:53:30.423Z,6.96
2019-02-20T02:56:07.715Z,6.94
2019-02-20T02:58:57.510Z,6.90
2019-02-20T03:01:37.186Z,6.86
2019-02-20T03:04:15.185Z,6.84
2019-02-20T03:06:59.258Z,6.86
2019-02-20T03:09:41.653Z,6.85
2019-02-20T03:12:20.077Z,6.79
2019-02-20T03:15:27.127Z,6.79
2019-02-20T03:18:18.626Z,6.78
2019-02-20T03:21:20.251Z,6.66
2019-02-20T03:24:01.867Z,6.72
2019-02-20T03:26:48.513Z,6.67
2019-02-20T03:29:32.413Z,6.60
2019-02-20T03:32:36.331Z,6.57
2019-02-20T03:35:14.893Z,6.55
2019-02-20T03:37:52.432Z,6.46
2019-02-20T03:40:38.351Z,6.47
2019-02-20T03:43:26.201Z,6.45
2019-02-20T03:46:02.475Z,6.42
2019-02-20T03:48:47.571Z,6.44
2019-02-20T03:51:28.386Z,6.41
2019-02-20T03:54:28.975Z,6.37
2019-02-20T03:57:05.492Z,6.35
2019-02-20T03:59:40.841Z,6.33
2019-02-20T04:02:16.227Z,6.34
2019-02-20T04:04:55.433Z,6.34
2019-02-20T04:07:33.193Z,6.39
2019-02-20T04:10:09.309Z,6.33
2019-02-20T04:12:52.970Z,6.36
2019-02-20T04:15:54.521Z,6.39
2019-02-20T04:18:42.121Z,6.41
2019-02-20T04:21:20.405Z,6.43
2019-02-20T04:24:02.470Z,6.43
2019-02-20T04:26:29.140Z,6.48
2019-02-20T04:29:06.946Z,6.48
2019-02-20T04:31:49.483Z,6.53
2019-02-20T04:34:36.054Z,6.57
2019-02-20T04:39:57.224Z,6.58
2019-02-20T04:42:37.096Z,6.65
2019-02-20T04:45:12.913Z,6.66
2019-02-20T04:47:54.278Z,6.70
2019-02-20T04:50:32.957Z,6.72
2019-02-20T04:58:41.144Z,6.79
2019-02-20T05:01:19.082Z,6.81
2019-02-20T05:03:59.335Z,6.85
2019-02-20T05:09:51.461Z,6.89
2019-02-20T05:12:42.147Z,6.93
2019-02-20T05:18:05.714Z,6.94
2019-02-20T05:20:55.569Z,6.96
2019-02-20T05:23:32.962Z,6.98
2019-02-20T05:26:15.392Z,6.98
2019-02-20T05:28:58.508Z,7.03
2019-02-20T05:31:47.315Z,7.02
2019-02-20T05:34:33.819Z,7.06
2019-02-20T05:37:28.073Z,7.00
2019-02-20T05:40:24.926Z,7.03
2019-02-20T05:43:34.213Z,7.05
2019-02-20T05:46:40.665Z,7.07
2019-02-20T05:49:21.721Z,7.07
2019-02-20T05:52:14.827Z,7.05
2019-02-20T05:55:04.535Z,7.10
2019-02-20T05:57:51.992Z,7.11
2019-02-20T06:00:47.502Z,7.13
2019-02-20T06:03:34.879Z,7.09
2019-02-20T06:06:20.288Z,7.12
2019-02-20T06:09:17.925Z,7.12
2019-02-20T06:12:09.984Z,7.13
2019-02-20T06:14:59.640Z,7.14
2019-02-20T06:17:50.122Z,7.12
2019-02-20T06:20:47.014Z,7.15
2019-02-20T06:26:15.583Z,7.16
2019-02-20T06:29:01.569Z,7.15
2019-02-20T06:31:36.738Z,7.20
2019-02-20T06:37:06.881Z,7.23
2019-02-20T06:39:47.919Z,7.25
2019-02-20T06:42:30.963Z,7.27
2019-02-20T06:45:14.276Z,7.31
2019-02-20T06:47:55.854Z,7.28
2019-02-20T06:50:52.140Z,7.31
2019-02-20T06:53:36.281Z,7.31
2019-02-20T06:56:14.715Z,7.34
2019-02-20T06:58:53.947Z,7.35
2019-02-20T07:01:35.200Z,7.39
2019-02-20T07:07:20.819Z,7.49
2019-02-20T07:10:17.123Z,7.38
2019-02-20T07:13:01.873Z,7.50
2019-02-20T07:15:53.947Z,7.56
2019-02-20T07:18:32.475Z,7.55
2019-02-20T07:21:27.229Z,7.61
2019-02-20T07:24:15.378Z,7.67
2019-02-20T07:27:18.121Z,7.70
2019-02-20T07:30:03.284Z,7.70
2019-02-20T07:32:57.550Z,7.70
2019-02-20T07:35:40.566Z,7.73
2019-02-20T07:38:18.684Z,7.73
2019-02-20T07:41:16.293Z,7.79
2019-02-20T07:43:55.701Z,7.73
2019-02-20T07:46:49.842Z,7.76
2019-02-20T07:52:15.079Z,7.81
2019-02-20T07:54:59.205Z,7.80
2019-02-20T07:57:38.671Z,7.94
2019-02-20T08:00:27.863Z,7.98
2019-02-20T08:03:19.586Z,8.12
2019-02-20T08:06:01.651Z,8.21
2019-02-20T08:08:43.450Z,8.19
2019-02-20T08:11:35.029Z,8.20
2019-02-20T08:14:03.510Z,8.10
2019-02-20T08:16:32.042Z,8.11
2019-02-20T08:19:00.504Z,8.14
2019-02-20T08:21:28.992Z,8.14
2019-02-20T08:23:57.644Z,8.21
2019-02-20T08:26:26.128Z,8.25
2019-02-20T08:28:54.606Z,8.37
2019-02-20T08:31:23.087Z,8.47
2019-02-20T08:33:51.547Z,8.50
2019-02-20T08:36:20.031Z,8.51
2019-02-20T08:38:48.493Z,8.74
2019-02-20T08:41:16.977Z,8.96
2019-02-20T08:43:45.461Z,9.17
2019-02-20T08:46:13.937Z,9.24
2019-02-20T08:48:42.415Z,9.46
2019-02-20T08:51:10.962Z,9.46
2019-02-20T08:53:39.400Z,9.59
2019-02-20T08:56:07.885Z,9.62
2019-02-20T08:58:36.340Z,9.43
2019-02-20T09:01:04.827Z,9.66
2019-02-20T09:03:33.294Z,9.91
2019-02-20T09:06:01.774Z,9.88
2019-02-20T09:08:30.261Z,10.07
2019-02-20T09:10:58.767Z,10.02
2019-02-20T09:13:27.226Z,9.98
2019-02-20T09:15:55.709Z,9.99
2019-02-20T09:18:24.167Z,9.98
2019-02-20T09:20:52.672Z,9.90
2019-02-20T09:23:21.163Z,10.02
2019-02-20T09:25:49.646Z,10.04
2019-02-20T09:28:18.119Z,10.16
2019-02-20T09:30:46.603Z,10.21
2019-02-20T09:33:15.064Z,10.06
2019-02-20T09:35:43.557Z,10.17
2019-02-20T09:38:12.037Z,10.08
2019-02-20T09:40:40.673Z,10.06
2019-02-20T09:43:09.161Z,10.01
2019-02-20T09:45:42.069Z,10.19
2019-02-20T09:48:07.890Z,10.31
2019-02-20T09:50:36.343Z,10.26
2019-02-20T09:53:04.861Z,10.38
2019-02-20T09:55:33.336Z,10.30
2019-02-20T09:58:01.843Z,10.08
2019-02-20T10:00:30.347Z,10.21
2019-02-20T10:02:58.825Z,10.29
2019-02-20T10:05:27.287Z,10.46
2019-02-20T10:07:55.777Z,10.53
2019-02-20T10:10:24.253Z,10.53
2019-02-20T10:12:52.736Z,10.66
2019-02-20T10:15:21.213Z,10.45
2019-02-20T10:17:49.695Z,10.53
2019-02-20T10:20:18.178Z,10.62
2019-02-20T10:22:46.663Z,10.68
2019-02-20T10:25:15.117Z,10.92
2019-02-20T10:27:43.601Z,10.88
2019-02-20T10:30:21.212Z,10.92
2019-02-20T10:32:49.706Z,11.17
2019-02-20T10:35:18.178Z,11.08
2019-02-20T10:37:46.681Z,11.07
2019-02-20T10:40:15.140Z,11.04
2019-02-20T10:42:43.629Z,11.19
2019-02-20T10:45:13.252Z,11.08
2019-02-20T10:47:41.733Z,11.36
2019-02-20T10:50:13.992Z,11.39
2019-02-20T10:52:42.474Z,11.45
2019-02-20T10:55:11.234Z,11.65
2019-02-20T10:57:39.732Z,11.74
2019-02-20T11:00:23.199Z,11.80
2019-02-20T11:02:43.299Z,11.95
2019-02-20T11:05:11.782Z,11.89
2019-02-20T11:07:40.269Z,12.13
2019-02-20T11:10:09.380Z,11.88
2019-02-20T11:12:37.876Z,12.07
2019-02-20T11:15:08.378Z,11.98
2019-02-20T11:17:37.485Z,12.12
2019-02-20T11:20:08.997Z,12.10
2019-02-20T11:22:37.476Z,11.91
2019-02-20T11:25:09.165Z,11.92
2019-02-20T11:27:39.462Z,12.06
2019-02-20T11:30:16.421Z,11.98
2019-02-20T11:32:44.929Z,12.05
2019-02-20T11:35:13.398Z,12.20
2019-02-20T11:37:41.890Z,12.13
2019-02-20T11:40:12.189Z,11.89
2019-02-20T11:42:40.687Z,12.03
2019-02-20T11:45:17.329Z,11.86
2019-02-20T11:47:45.817Z,11.96
2019-02-20T11:50:14.323Z,11.75
2019-02-20T11:52:43.247Z,11.94
2019-02-20T11:55:13.451Z,11.75
2019-02-20T11:57:41.948Z,11.79
2019-02-20T12:00:15.735Z,11.78
2019-02-20T12:02:44.240Z,11.69
2019-02-20T12:05:13.132Z,11.77
2019-02-20T12:07:41.631Z,11.74
2019-02-20T12:10:12.970Z,11.73
2019-02-20T12:12:41.438Z,11.72
2019-02-20T12:15:09.899Z,11.81
2019-02-20T12:17:38.401Z,11.83
2019-02-20T12:20:08.389Z,11.80
2019-02-20T12:22:37.077Z,11.94
2019-02-20T12:25:07.875Z,11.89
2019-02-20T12:27:36.351Z,11.97
2019-02-20T12:30:10.097Z,12.13
2019-02-20T12:32:38.603Z,12.07
2019-02-20T12:35:08.396Z,11.98
2019-02-20T12:37:36.942Z,11.94
2019-02-20T12:40:10.487Z,11.90
2019-02-20T12:42:38.988Z,11.92
2019-02-20T12:45:08.800Z,11.81
2019-02-20T12:47:37.285Z,11.82
2019-02-20T12:50:14.232Z,11.85
2019-02-20T12:52:42.799Z,11.79
2019-02-20T12:55:11.505Z,11.81
2019-02-20T12:57:40.170Z,11.66
2019-02-20T13:00:15.700Z,11.68
2019-02-20T13:02:44.176Z,11.56
2019-02-20T13:05:12.724Z,11.52
2019-02-20T13:07:42.168Z,11.44
2019-02-20T13:10:10.976Z,11.41
2019-02-20T13:12:39.472Z,11.41
2019-02-20T13:15:09.683Z,11.32
2019-02-20T13:17:38.178Z,11.36
2019-02-20T13:20:08.981Z,11.22
2019-02-20T13:22:37.483Z,11.35
2019-02-20T13:25:07.585Z,11.34
2019-02-20T13:27:36.066Z,11.34
2019-02-20T13:30:07.614Z,11.21
2019-02-20T13:32:36.084Z,11.32
2019-02-20T13:35:06.114Z,11.32
2019-02-20T13:37:34.593Z,11.29
2019-02-20T13:40:03.253Z,11.36
2019-02-20T13:42:32.130Z,11.28
2019-02-20T13:45:00.797Z,11.29
2019-02-20T13:47:29.278Z,11.39
2019-02-20T13:49:57.759Z,11.32
2019-02-20T13:52:26.226Z,11.20
2019-02-20T13:54:54.733Z,11.30
2019-02-20T13:57:23.189Z,11.28
2019-02-20T13:59:51.681Z,11.17
2019-02-20T14:02:20.410Z,11.07
2019-02-20T14:04:48.919Z,11.17
2019-02-20T14:07:17.392Z,11.28
2019-02-20T14:09:45.887Z,11.19
2019-02-20T14:12:14.639Z,11.10
2019-02-20T14:14:43.126Z,11.19
2019-02-20T14:17:11.639Z,11.22
2019-02-20T14:19:40.134Z,11.16
2019-02-20T14:22:08.596Z,11.14
2019-02-20T14:24:37.088Z,11.17
2019-02-20T14:27:10.852Z,11.10
2019-02-20T14:29:35.786Z,11.05
2019-02-20T14:32:04.254Z,11.03
2019-02-20T14:34:32.747Z,11.07
2019-02-20T14:37:02.899Z,11.10
2019-02-20T14:39:31.590Z,11.03
2019-02-20T14:42:01.013Z,11.05
2019-02-20T14:44:29.642Z,11.02
2019-02-20T14:46:58.113Z,11.06
2019-02-20T14:49:26.603Z,11.06
2019-02-20T14:51:55.059Z,11.07
2019-02-20T14:54:23.556Z,11.12
2019-02-20T14:56:52.027Z,11.11
2019-02-20T14:59:20.520Z,11.05
2019-02-20T15:01:49.362Z,11.04
2019-02-20T15:04:17.849Z,10.99
2019-02-20T15:06:46.316Z,11.01
2019-02-20T15:09:14.804Z,10.93
2019-02-20T15:11:43.286Z,10.88
2019-02-20T15:14:11.767Z,10.87
2019-02-20T15:16:40.243Z,10.83
2019-02-20T15:19:09.104Z,10.86
2019-02-20T15:21:37.582Z,10.83
2019-02-20T15:24:06.122Z,10.74
2019-02-20T15:26:34.644Z,10.77
2019-02-20T15:29:03.125Z,10.72
2019-02-20T15:31:33.966Z,10.72
2019-02-20T15:34:01.973Z,10.66
2019-02-20T15:36:30.464Z,10.58
2019-02-20T15:38:58.935Z,10.63
2019-02-20T15:41:27.425Z,10.58
2019-02-20T15:43:55.895Z,10.59
2019-02-20T15:46:24.378Z,10.58
2019-02-20T15:48:52.897Z,10.54
2019-02-20T15:51:21.753Z,10.48
2019-02-20T15:53:50.234Z,10.49
2019-02-20T15:56:18.721Z,10.52
2019-02-20T15:58:47.196Z,10.50
2019-02-20T16:01:15.851Z,10.53
2019-02-20T16:03:44.796Z,10.54
2019-02-20T16:06:13.296Z,10.52
2019-02-20T16:08:42.149Z,10.50
2019-02-20T16:11:10.633Z,10.40
2019-02-20T16:13:39.113Z,10.42
2019-02-20T16:16:07.617Z,10.54
2019-02-20T16:18:36.071Z,10.42
2019-02-20T16:21:04.624Z,10.39
2019-02-20T16:23:33.107Z,10.30
2019-02-20T16:26:02.249Z,10.36
2019-02-20T16:28:34.012Z,10.28
2019-02-20T16:31:02.512Z,10.40
2019-02-20T16:33:30.992Z,10.31
2019-02-20T16:35:59.498Z,10.26
2019-02-20T16:38:27.978Z,10.25
2019-02-20T16:40:56.848Z,10.17
2019-02-20T16:43:25.315Z,10.18
2019-02-20T16:45:53.815Z,10.20
2019-02-20T16:48:22.462Z,10.17
2019-02-20T16:50:51.021Z,10.12
2019-02-20T16:53:19.501Z,10.07
2019-02-20T16:55:48.006Z,10.08
2019-02-20T16:58:16.855Z,10.03
2019-02-20T17:00:45.345Z,10.03
2019-02-20T17:03:13.868Z,10.05
2019-02-20T17:05:42.444Z,10.05
2019-02-20T17:08:10.924Z,9.99
2019-02-20T17:10:39.510Z,10.04
2019-02-20T17:13:08.062Z,9.96
2019-02-20T17:15:36.594Z,10.02
2019-02-20T17:18:05.061Z,9.92
2019-02-20T17:20:33.536Z,9.84
2019-02-20T17:23:02.025Z,9.85
2019-02-20T17:25:30.499Z,9.86
2019-02-20T17:28:05.539Z,9.83
2019-02-20T17:30:29.171Z,9.84
2019-02-20T17:32:57.659Z,9.89
2019-02-20T17:35:26.126Z,9.89
2019-02-20T17:37:54.617Z,9.86
2019-02-20T17:40:23.077Z,9.83
2019-02-20T17:42:51.573Z,9.76
2019-02-20T17:45:20.309Z,9.83
2019-02-20T17:47:48.804Z,9.82
2019-02-20T17:50:27.441Z,9.78
2019-02-20T17:52:55.944Z,9.76
2019-02-20T17:55:24.404Z,9.79
2019-02-20T17:57:52.885Z,9.77
2019-02-20T18:00:23.660Z,9.74
2019-02-20T18:02:52.168Z,9.72
2019-02-20T18:05:20.634Z,9.72
2019-02-20T18:07:51.848Z,9.72
2019-02-20T18:10:19.313Z,9.68
2019-02-20T18:12:47.809Z,9.68
2019-02-20T18:15:16.353Z,9.63
2019-02-20T18:17:44.835Z,9.66
2019-02-20T18:20:13.316Z,9.62
2019-02-20T18:22:43.697Z,9.61
2019-02-20T18:25:12.612Z,9.56
2019-02-20T18:27:41.124Z,9.57
2019-02-20T18:30:13.797Z,9.61
2019-02-20T18:32:42.352Z,9.59
2019-02-20T18:35:13.866Z,9.59
2019-02-20T18:37:42.356Z,9.59
2019-02-20T18:40:13.596Z,9.54
2019-02-20T18:42:42.153Z,9.52
2019-02-20T18:45:12.673Z,9.48
2019-02-20T18:47:41.322Z,9.50
2019-02-20T18:50:12.341Z,9.43
2019-02-20T18:52:40.815Z,9.46
2019-02-20T18:55:11.114Z,9.47
2019-02-20T18:57:39.619Z,9.46
2019-02-20T19:00:11.532Z,9.40
2019-02-20T19:02:40.055Z,9.45
2019-02-20T19:05:09.762Z,9.41
2019-02-20T19:07:38.226Z,9.43
2019-02-20T19:10:09.734Z,9.42
2019-02-20T19:12:57.687Z,9.39
2019-02-20T19:15:29.184Z,9.38
2019-02-20T19:18:03.448Z,9.34
2019-02-20T19:20:37.680Z,9.29
2019-02-20T19:23:20.612Z,9.29
2019-02-20T19:26:09.105Z,9.24
2019-02-20T19:28:49.061Z,9.36
2019-02-20T19:31:35.716Z,9.28
2019-02-20T19:34:26.421Z,9.27
2019-02-20T19:36:57.923Z,9.20
2019-02-20T19:39:29.489Z,9.18
2019-02-20T19:42:36.935Z,9.21
2019-02-20T19:45:32.918Z,9.11
2019-02-20T19:48:12.943Z,9.17
2019-02-20T19:50:53.209Z,9.15
2019-02-20T19:53:27.651Z,9.16
2019-02-20T19:56:13.977Z,9.14
2019-02-20T19:58:57.083Z,9.12
2019-02-20T20:01:44.791Z,9.06
2019-02-20T20:04:25.586Z,9.06
2019-02-20T20:06:57.735Z,9.06
2019-02-20T20:09:32.101Z,9.04
2019-02-20T20:12:15.392Z,9.03
2019-02-20T20:15:13.586Z,9.01
2019-02-20T20:18:00.261Z,9.00
2019-02-20T20:20:56.005Z,8.98
2019-02-20T20:24:00.600Z,8.92
2019-02-20T20:26:48.948Z,8.99
2019-02-20T20:29:35.469Z,8.98
2019-02-20T20:32:32.919Z,8.96
2019-02-20T20:35:20.963Z,8.88
2019-02-20T20:38:04.530Z,8.89
2019-02-20T20:40:41.779Z,8.88
2019-02-20T20:43:24.594Z,8.86
2019-02-20T20:46:01.876Z,8.88
2019-02-20T20:48:51.263Z,8.89
2019-02-20T20:51:56.121Z,8.90
2019-02-20T20:54:36.322Z,8.82
2019-02-20T20:57:16.650Z,8.81
2019-02-20T20:59:50.947Z,8.80
2019-02-20T21:02:34.535Z,8.79
2019-02-20T21:05:26.978Z,8.78
2019-02-20T21:07:58.505Z,8.79
2019-02-20T21:10:45.735Z,8.79
2019-02-20T21:13:34.934Z,8.77
2019-02-20T21:16:15.602Z,8.73
2019-02-20T21:19:21.207Z,8.72
2019-02-20T21:21:47.792Z,8.65
2019-02-20T21:24:36.184Z,8.62
2019-02-20T21:27:32.054Z,8.56
2019-02-20T21:30:15.687Z,8.62
2019-02-20T21:32:59.245Z,8.52
2019-02-20T21:35:33.332Z,8.55
2019-02-20T21:38:23.857Z,8.54
2019-02-20T21:41:01.167Z,8.58
2019-02-20T21:43:35.303Z,8.54
2019-02-20T21:46:12.803Z,8.58
2019-02-20T21:48:59.237Z,8.55
2019-02-20T21:51:36.469Z,8.49
2019-02-20T21:54:10.663Z,8.42
2019-02-20T21:56:53.932Z,8.37
2019-02-20T21:59:38.914Z,8.34
2019-02-20T22:02:07.511Z,8.33
2019-02-20T22:04:50.906Z,8.31
2019-02-20T22:07:49.837Z,8.28
2019-02-20T22:10:27.503Z,8.29
2019-02-20T22:13:34.993Z,8.28
2019-02-20T22:16:18.157Z,8.24
2019-02-20T22:19:01.569Z,8.12
2019-02-20T22:22:08.478Z,8.14
2019-02-20T22:24:40.024Z,8.13
2019-02-20T22:27:14.209Z,8.13
2019-02-20T22:30:16.162Z,8.11
2019-02-20T22:32:59.797Z,8.01
2019-02-20T22:35:49.355Z,7.96
2019-02-20T22:38:52.198Z,7.94
2019-02-20T22:41:26.582Z,7.92
2019-02-20T22:44:23.835Z,7.84
2019-02-20T22:47:09.985Z,7.90
2019-02-20T22:49:56.659Z,7.81
2019-02-20T22:52:28.173Z,7.74
2019-02-20T22:55:17.770Z,7.73
2019-02-20T22:58:10.265Z,7.77
2019-02-20T23:01:16.754Z,7.72
2019-02-20T23:03:54.195Z,7.69
2019-02-20T23:06:46.265Z,7.70
2019-02-20T23:09:20.536Z,7.71
2019-02-20T23:12:11.895Z,7.73
2019-02-20T23:14:53.411Z,7.73
2019-02-20T23:17:21.863Z,7.70
2019-02-20T23:19:50.368Z,7.73
2019-02-20T23:22:18.932Z,7.69
2019-02-20T23:24:47.385Z,7.75
2019-02-20T23:27:15.956Z,7.75
2019-02-20T23:29:44.443Z,7.81
2019-02-20T23:32:12.928Z,7.79
2019-02-20T23:34:41.411Z,7.80
2019-02-20T23:37:09.954Z,7.80
2019-02-20T23:39:38.435Z,7.83
2019-02-20T23:42:06.917Z,7.81
2019-02-20T23:44:35.374Z,7.81
2019-02-20T23:47:03.932Z,7.81
2019-02-20T23:49:32.394Z,7.83
2019-02-20T23:52:00.886Z,7.82
2019-02-20T23:54:29.366Z,7.87
2019-02-20T23:56:57.859Z,7.87
2019-02-20T23:59:26.325Z,7.81
